sensor_id;sensor_type;location;lat;lon;timestamp;pressure;altitude;pressure_sealevel;temperature;humidity
65359;BME280;52491;45.900;6.346;2023-01-28T00:01:43;93576.50;;;22.94;23.79
65359;BME280;52491;45.900;6.346;2023-01-28T00:04:09;93580.22;;;22.93;23.84
65359;BME280;52491;45.900;6.346;2023-01-28T00:06:35;93576.22;;;22.91;23.75
65359;BME280;52491;45.900;6.346;2023-01-28T00:09:00;93574.63;;;22.90;23.65
65359;BME280;52491;45.900;6.346;2023-01-28T00:11:26;93573.03;;;22.89;23.86
65359;BME280;52491;45.900;6.346;2023-01-28T00:13:52;93580.72;;;22.90;23.57
65359;BME280;52491;45.900;6.346;2023-01-28T00:16:19;93570.38;;;22.89;23.59
65359;BME280;52491;45.900;6.346;2023-01-28T00:18:47;93566.94;;;22.88;23.52
65359;BME280;52491;45.900;6.346;2023-01-28T00:21:14;93573.84;;;22.89;23.58
65359;BME280;52491;45.900;6.346;2023-01-28T00:23:41;93578.06;;;22.90;23.41
65359;BME280;52491;45.900;6.346;2023-01-28T00:26:12;93570.63;;;22.87;23.45
65359;BME280;52491;45.900;6.346;2023-01-28T00:28:39;93571.91;;;22.79;23.53
65359;BME280;52491;45.900;6.346;2023-01-28T00:31:16;93568.22;;;22.81;23.41
65359;BME280;52491;45.900;6.346;2023-01-28T00:33:46;93578.31;;;22.78;23.47
65359;BME280;52491;45.900;6.346;2023-01-28T00:36:13;93573.25;;;22.77;23.44
65359;BME280;52491;45.900;6.346;2023-01-28T00:38:39;93571.66;;;22.76;23.32
65359;BME280;52491;45.900;6.346;2023-01-28T00:41:14;93571.41;;;22.77;23.32
65359;BME280;52491;45.900;6.346;2023-01-28T00:43:41;93567.94;;;22.77;23.36
65359;BME280;52491;45.900;6.346;2023-01-28T00:46:09;93568.19;;;22.75;23.28
65359;BME280;52491;45.900;6.346;2023-01-28T00:48:36;93572.44;;;22.71;23.33
65359;BME280;52491;45.900;6.346;2023-01-28T00:51:03;93571.09;;;22.74;23.29
65359;BME280;52491;45.900;6.346;2023-01-28T00:53:30;93565.78;;;22.74;23.12
65359;BME280;52491;45.900;6.346;2023-01-28T00:55:55;93560.75;;;22.72;23.22
65359;BME280;52491;45.900;6.346;2023-01-28T00:58:21;93564.19;;;22.73;23.23
65359;BME280;52491;45.900;6.346;2023-01-28T01:00:49;93564.47;;;22.71;23.27
65359;BME280;52491;45.900;6.346;2023-01-28T01:03:15;93567.91;;;22.72;23.20
65359;BME280;52491;45.900;6.346;2023-01-28T01:05:41;93556.50;;;22.71;23.13
65359;BME280;52491;45.900;6.346;2023-01-28T01:08:07;93556.50;;;22.71;23.05
65359;BME280;52491;45.900;6.346;2023-01-28T01:10:32;93562.06;;;22.70;23.02
65359;BME280;52491;45.900;6.346;2023-01-28T01:12:59;93564.72;;;22.70;23.06
65359;BME280;52491;45.900;6.346;2023-01-28T01:15:24;93564.16;;;22.68;23.02
65359;BME280;52491;45.900;6.346;2023-01-28T01:17:50;93564.97;;;22.68;23.16
65359;BME280;52491;45.900;6.346;2023-01-28T01:20:22;93571.88;;;22.69;22.94
65359;BME280;52491;45.900;6.346;2023-01-28T01:22:49;93572.94;;;22.68;22.94
65359;BME280;52491;45.900;6.346;2023-01-28T01:25:15;93569.75;;;22.66;22.84
65359;BME280;52491;45.900;6.346;2023-01-28T01:27:42;93584.38;;;22.69;22.94
65359;BME280;52491;45.900;6.346;2023-01-28T01:30:09;93585.41;;;22.68;22.84
65359;BME280;52491;45.900;6.346;2023-01-28T01:32:35;93576.91;;;22.66;22.96
65359;BME280;52491;45.900;6.346;2023-01-28T01:35:04;93582.22;;;22.66;22.68
65359;BME280;52491;45.900;6.346;2023-01-28T01:37:33;93587.53;;;22.66;22.79
65359;BME280;52491;45.900;6.346;2023-01-28T01:39:59;93576.09;;;22.65;22.66
65359;BME280;52491;45.900;6.346;2023-01-28T01:42:30;93569.47;;;22.68;22.79
65359;BME280;52491;45.900;6.346;2023-01-28T01:45:03;93567.88;;;22.67;22.83
65359;BME280;52491;45.900;6.346;2023-01-28T01:49:59;93563.63;;;22.66;22.73
65359;BME280;52491;45.900;6.346;2023-01-28T01:52:30;93571.88;;;22.64;22.80
65359;BME280;52491;45.900;6.346;2023-01-28T01:55:00;93566.56;;;22.64;22.73
65359;BME280;52491;45.900;6.346;2023-01-28T01:57:30;93568.13;;;22.65;22.69
65359;BME280;52491;45.900;6.346;2023-01-28T01:59:57;93565.75;;;22.64;22.44
65359;BME280;52491;45.900;6.346;2023-01-28T02:02:36;93576.91;;;22.66;22.68
65359;BME280;52491;45.900;6.346;2023-01-28T02:05:03;93572.94;;;22.63;22.63
65359;BME280;52491;45.900;6.346;2023-01-28T02:07:30;93567.34;;;22.65;22.68
65359;BME280;52491;45.900;6.346;2023-01-28T02:09:55;93570.78;;;22.65;22.50
65359;BME280;52491;45.900;6.346;2023-01-28T02:12:26;93570.78;;;22.65;22.60
65359;BME280;52491;45.900;6.346;2023-01-28T02:15:00;93579.03;;;22.64;22.57
65359;BME280;52491;45.900;6.346;2023-01-28T02:17:27;93575.59;;;22.63;22.68
65359;BME280;52491;45.900;6.346;2023-01-28T02:19:57;93572.66;;;22.65;22.62
65359;BME280;52491;45.900;6.346;2023-01-28T02:28:20;93563.34;;;22.62;22.47
65359;BME280;52491;45.900;6.346;2023-01-28T02:36:48;93560.97;;;22.61;22.52
65359;BME280;52491;45.900;6.346;2023-01-28T02:39:26;93560.13;;;22.60;22.38
65359;BME280;52491;45.900;6.346;2023-01-28T02:42:06;93561.47;;;22.63;22.35
65359;BME280;52491;45.900;6.346;2023-01-28T02:44:33;93564.66;;;22.60;22.42
65359;BME280;52491;45.900;6.346;2023-01-28T02:46:59;93560.69;;;22.62;22.33
65359;BME280;52491;45.900;6.346;2023-01-28T02:49:52;93564.97;;;22.63;22.27
65359;BME280;52491;45.900;6.346;2023-01-28T02:52:44;93554.56;;;22.62;22.28
65359;BME280;52491;45.900;6.346;2023-01-28T03:03:16;93567.59;;;22.58;22.47
65359;BME280;52491;45.900;6.346;2023-01-28T03:05:57;93565.72;;;22.59;22.20
65359;BME280;52491;45.900;6.346;2023-01-28T03:08:57;93570.50;;;22.56;22.17
65359;BME280;52491;45.900;6.346;2023-01-28T03:11:45;93565.69;;;22.53;22.10
65359;BME280;52491;45.900;6.346;2023-01-28T03:14:33;93564.09;;;22.52;22.35
65359;BME280;52491;45.900;6.346;2023-01-28T03:17:25;93559.59;;;22.53;22.35
65359;BME280;52491;45.900;6.346;2023-01-28T03:20:12;93551.88;;;22.51;22.24
65359;BME280;52491;45.900;6.346;2023-01-28T03:22:59;93550.56;;;22.54;22.09
65359;BME280;52491;45.900;6.346;2023-01-28T03:25:45;93557.19;;;22.51;22.27
65359;BME280;52491;45.900;6.346;2023-01-28T03:28:31;93559.84;;;22.51;22.15
65359;BME280;52491;45.900;6.346;2023-01-28T03:31:18;93563.56;;;22.50;21.99
65359;BME280;52491;45.900;6.346;2023-01-28T03:34:04;93557.44;;;22.50;22.10
65359;BME280;52491;45.900;6.346;2023-01-28T03:36:49;93560.91;;;22.50;22.03
65359;BME280;52491;45.900;6.346;2023-01-28T03:39:24;93559.84;;;22.51;22.07
65359;BME280;52491;45.900;6.346;2023-01-28T03:42:09;93563.56;;;22.50;21.99
65359;BME280;52491;45.900;6.346;2023-01-28T03:44:35;93564.63;;;22.49;22.19
65359;BME280;52491;45.900;6.346;2023-01-28T03:47:24;93569.41;;;22.52;22.13
65359;BME280;52491;45.900;6.346;2023-01-28T03:49:53;93563.31;;;22.52;21.98
65359;BME280;52491;45.900;6.346;2023-01-28T03:52:22;93562.25;;;22.53;22.02
65359;BME280;52491;45.900;6.346;2023-01-28T03:54:48;93561.44;;;22.52;21.88
65359;BME280;52491;45.900;6.346;2023-01-28T03:57:15;93556.94;;;22.53;22.03
65359;BME280;52491;45.900;6.346;2023-01-28T03:59:41;93565.69;;;22.53;21.85
65359;BME280;52491;45.900;6.346;2023-01-28T04:02:07;93571.81;;;22.54;22.06
65359;BME280;52491;45.900;6.346;2023-01-28T04:04:37;93572.59;;;22.54;22.01
65359;BME280;52491;45.900;6.346;2023-01-28T04:07:02;93572.34;;;22.56;22.02
65359;BME280;52491;45.900;6.346;2023-01-28T04:09:29;93575.56;;;22.58;22.16
65359;BME280;52491;45.900;6.346;2023-01-28T04:11:55;93560.13;;;22.60;21.95
65359;BME280;52491;45.900;6.346;2023-01-28T04:14:21;93556.16;;;22.63;22.07
65359;BME280;52491;45.900;6.346;2023-01-28T04:16:47;93569.47;;;22.68;22.22
65359;BME280;52491;45.900;6.346;2023-01-28T04:19:12;93568.44;;;22.69;22.01
65359;BME280;52491;45.900;6.346;2023-01-28T04:21:38;93567.34;;;22.65;22.13
65359;BME280;52491;45.900;6.346;2023-01-28T04:24:04;93564.13;;;22.63;22.19
65359;BME280;52491;45.900;6.346;2023-01-28T04:26:30;93573.97;;;22.62;22.06
65359;BME280;52491;45.900;6.346;2023-01-28T04:28:55;93577.69;;;22.61;22.05
65359;BME280;52491;45.900;6.346;2023-01-28T04:31:21;93583.00;;;22.61;22.18
65359;BME280;52491;45.900;6.346;2023-01-28T04:33:48;93579.28;;;22.62;22.22
65359;BME280;52491;45.900;6.346;2023-01-28T04:36:14;93572.94;;;22.63;22.04
65359;BME280;52491;45.900;6.346;2023-01-28T04:38:40;93577.69;;;22.61;22.14
65359;BME280;52491;45.900;6.346;2023-01-28T04:41:06;93575.84;;;22.62;22.17
65359;BME280;52491;45.900;6.346;2023-01-28T04:43:31;93572.38;;;22.61;22.33
65359;BME280;52491;45.900;6.346;2023-01-28T04:45:57;93582.22;;;22.61;22.24
65359;BME280;52491;45.900;6.346;2023-01-28T04:48:23;93580.06;;;22.63;22.06
65359;BME280;52491;45.900;6.346;2023-01-28T04:50:48;93578.25;;;22.63;22.21
65359;BME280;52491;45.900;6.346;2023-01-28T04:53:14;93579.03;;;22.64;22.22
65359;BME280;52491;45.900;6.346;2023-01-28T04:55:39;93578.50;;;22.62;22.30
65359;BME280;52491;45.900;6.346;2023-01-28T04:58:05;93576.38;;;22.64;22.18
65359;BME280;52491;45.900;6.346;2023-01-28T05:00:31;93581.16;;;22.62;22.25
65359;BME280;52491;45.900;6.346;2023-01-28T05:02:56;93578.25;;;22.63;22.22
65359;BME280;52491;45.900;6.346;2023-01-28T05:05:22;93578.25;;;22.63;22.25
65359;BME280;52491;45.900;6.346;2023-01-28T05:07:52;93575.31;;;22.65;22.11
65359;BME280;52491;45.900;6.346;2023-01-28T05:10:18;93579.28;;;22.62;22.16
65359;BME280;52491;45.900;6.346;2023-01-28T05:12:44;93584.34;;;22.64;22.27
65359;BME280;52491;45.900;6.346;2023-01-28T05:15:10;93583.28;;;22.65;22.10
65359;BME280;52491;45.900;6.346;2023-01-28T05:17:35;93587.81;;;22.64;22.21
65359;BME280;52491;45.900;6.346;2023-01-28T05:20:01;93596.56;;;22.65;22.18
65359;BME280;52491;45.900;6.346;2023-01-28T05:22:26;93597.13;;;22.67;22.12
65359;BME280;52491;45.900;6.346;2023-01-28T05:24:52;93584.88;;;22.66;22.10
65359;BME280;52491;45.900;6.346;2023-01-28T05:27:17;93595.25;;;22.67;22.10
65359;BME280;52491;45.900;6.346;2023-01-28T05:29:43;93595.00;;;22.69;21.93
65359;BME280;52491;45.900;6.346;2023-01-28T05:32:09;93600.31;;;22.69;21.94
65359;BME280;52491;45.900;6.346;2023-01-28T05:34:34;93601.91;;;22.70;22.19
65359;BME280;52491;45.900;6.346;2023-01-28T05:37:00;93602.97;;;22.69;22.26
65359;BME280;52491;45.900;6.346;2023-01-28T05:39:25;93608.03;;;22.70;21.97
65359;BME280;52491;45.900;6.346;2023-01-28T05:41:51;93602.47;;;22.72;22.02
65359;BME280;52491;45.900;6.346;2023-01-28T05:44:16;93600.06;;;22.70;22.09
65359;BME280;52491;45.900;6.346;2023-01-28T05:46:42;93592.88;;;22.71;22.14
65359;BME280;52491;45.900;6.346;2023-01-28T05:49:11;93603.81;;;22.74;22.09
65359;BME280;52491;45.900;6.346;2023-01-28T05:51:41;93599.53;;;22.73;22.20
65359;BME280;52491;45.900;6.346;2023-01-28T05:54:07;93605.63;;;22.74;22.08
65359;BME280;52491;45.900;6.346;2023-01-28T05:56:34;93612.06;;;22.78;22.27
65359;BME280;52491;45.900;6.346;2023-01-28T05:59:02;93603.59;;;22.86;22.13
65359;BME280;52491;45.900;6.346;2023-01-28T06:01:30;93607.88;;;22.92;21.98
65359;BME280;52491;45.900;6.346;2023-01-28T06:03:56;93615.63;;;22.99;21.98
65359;BME280;52491;45.900;6.346;2023-01-28T06:06:22;93617.50;;;23.04;21.89
65359;BME280;52491;45.900;6.346;2023-01-28T06:08:48;93622.31;;;23.07;21.79
65359;BME280;52491;45.900;6.346;2023-01-28T06:11:13;93626.06;;;23.11;21.84
65359;BME280;52491;45.900;6.346;2023-01-28T06:13:39;93623.13;;;23.12;21.80
65359;BME280;52491;45.900;6.346;2023-01-28T06:16:06;93624.47;;;23.15;21.81
65359;BME280;52491;45.900;6.346;2023-01-28T06:18:32;93623.94;;;23.18;21.71
65359;BME280;52491;45.900;6.346;2023-01-28T06:20:58;93615.72;;;23.19;21.74
65359;BME280;52491;45.900;6.346;2023-01-28T06:23:24;93626.88;;;23.21;21.68
65359;BME280;52491;45.900;6.346;2023-01-28T06:25:54;93632.75;;;23.23;21.73
65359;BME280;52491;45.900;6.346;2023-01-28T06:28:20;93626.63;;;23.23;21.77
65359;BME280;52491;45.900;6.346;2023-01-28T06:30:49;93627.16;;;23.25;21.88
65359;BME280;52491;45.900;6.346;2023-01-28T06:33:16;93636.97;;;23.24;21.69
65359;BME280;52491;45.900;6.346;2023-01-28T06:35:42;93632.22;;;23.27;21.74
65359;BME280;52491;45.900;6.346;2023-01-28T06:38:07;93636.50;;;23.28;21.74
65359;BME280;52491;45.900;6.346;2023-01-28T06:40:33;93642.31;;;23.30;21.70
65359;BME280;52491;45.900;6.346;2023-01-28T06:42:58;93648.47;;;23.30;21.70
65359;BME280;52491;45.900;6.346;2023-01-28T06:45:25;93649.00;;;23.32;21.73
65359;BME280;52491;45.900;6.346;2023-01-28T06:47:50;93644.22;;;23.34;21.73
65359;BME280;52491;45.900;6.346;2023-01-28T06:50:16;93647.66;;;23.35;21.67
65359;BME280;52491;45.900;6.346;2023-01-28T06:52:42;93646.63;;;23.36;21.58
65359;BME280;52491;45.900;6.346;2023-01-28T06:55:08;93643.97;;;23.36;21.75
65359;BME280;52491;45.900;6.346;2023-01-28T06:57:36;93643.69;;;23.37;21.73
65359;BME280;52491;45.900;6.346;2023-01-28T07:00:03;93650.06;;;23.36;21.80
65359;BME280;52491;45.900;6.346;2023-01-28T07:02:29;93643.69;;;23.37;21.87
65359;BME280;52491;45.900;6.346;2023-01-28T07:04:54;93642.91;;;23.37;21.65
65359;BME280;52491;45.900;6.346;2023-01-28T07:07:20;93643.16;;;23.40;21.87
65359;BME280;52491;45.900;6.346;2023-01-28T07:09:45;93656.22;;;23.42;21.78
65359;BME280;52491;45.900;6.346;2023-01-28T07:12:11;93654.34;;;23.42;21.83
65359;BME280;52491;45.900;6.346;2023-01-28T07:14:37;93652.47;;;23.43;21.76
65359;BME280;52491;45.900;6.346;2023-01-28T07:17:02;93654.91;;;23.44;21.83
65359;BME280;52491;45.900;6.346;2023-01-28T07:19:28;93656.22;;;23.42;21.79
65359;BME280;52491;45.900;6.346;2023-01-28T07:21:53;93659.09;;;23.35;21.90
65359;BME280;52491;45.900;6.346;2023-01-28T07:24:22;93665.47;;;23.29;22.12
65359;BME280;52491;45.900;6.346;2023-01-28T07:26:48;93666.50;;;23.23;22.16
65359;BME280;52491;45.900;6.346;2023-01-28T07:29:15;93671.03;;;23.22;22.21
65359;BME280;52491;45.900;6.346;2023-01-28T07:31:41;93666.25;;;23.19;22.19
65359;BME280;52491;45.900;6.346;2023-01-28T07:34:08;93671.81;;;23.18;22.22
65359;BME280;52491;45.900;6.346;2023-01-28T07:36:33;93680.31;;;23.15;22.50
65359;BME280;52491;45.900;6.346;2023-01-28T07:38:59;93677.38;;;23.11;22.52
65359;BME280;52491;45.900;6.346;2023-01-28T07:41:25;93680.28;;;23.10;22.76
65359;BME280;52491;45.900;6.346;2023-01-28T07:43:52;93690.91;;;23.10;22.67
65359;BME280;52491;45.900;6.346;2023-01-28T07:46:17;93690.13;;;23.09;22.51
65359;BME280;52491;45.900;6.346;2023-01-28T07:48:43;93688.53;;;23.08;22.74
65359;BME280;52491;45.900;6.346;2023-01-28T07:51:10;93690.66;;;23.11;22.42
65359;BME280;52491;45.900;6.346;2023-01-28T07:53:36;93695.47;;;23.14;22.46
65359;BME280;52491;45.900;6.346;2023-01-28T07:56:02;93685.88;;;23.13;22.45
65359;BME280;52491;45.900;6.346;2023-01-28T07:58:29;93692.53;;;23.16;22.46
65359;BME280;52491;45.900;6.346;2023-01-28T08:00:58;93693.59;;;23.15;22.72
65359;BME280;52491;45.900;6.346;2023-01-28T08:03:24;93692.25;;;23.12;22.47
65359;BME280;52491;45.900;6.346;2023-01-28T08:05:51;93696.50;;;23.13;22.50
65359;BME280;52491;45.900;6.346;2023-01-28T08:08:18;93702.66;;;23.14;22.46
65359;BME280;52491;45.900;6.346;2023-01-28T08:10:44;93702.94;;;23.17;22.45
65359;BME280;52491;45.900;6.346;2023-01-28T08:13:11;93707.19;;;23.18;22.45
65359;BME280;52491;45.900;6.346;2023-01-28T08:15:38;93707.72;;;23.20;22.51
65359;BME280;52491;45.900;6.346;2023-01-28T08:18:06;93707.22;;;23.23;22.54
65359;BME280;52491;45.900;6.346;2023-01-28T08:20:32;93717.06;;;23.23;22.55
65359;BME280;52491;45.900;6.346;2023-01-28T08:25:30;93729.75;;;23.16;22.62
65359;BME280;52491;45.900;6.346;2023-01-28T08:27:55;93732.19;;;23.17;22.10
65359;BME280;52491;45.900;6.346;2023-01-28T08:30:22;93740.91;;;23.13;22.11
65359;BME280;52491;45.900;6.346;2023-01-28T08:32:48;93737.16;;;23.04;21.98
65359;BME280;52491;45.900;6.346;2023-01-28T08:35:14;93737.91;;;22.99;21.87
65359;BME280;52491;45.900;6.346;2023-01-28T08:37:39;93740.28;;;22.95;22.06
65359;BME280;52491;45.900;6.346;2023-01-28T08:40:06;93742.94;;;22.95;21.93
65359;BME280;52491;45.900;6.346;2023-01-28T08:42:31;93739.78;;;22.98;21.83
65359;BME280;52491;45.900;6.346;2023-01-28T08:44:57;93743.75;;;22.96;21.66
65359;BME280;52491;45.900;6.346;2023-01-28T08:47:23;93745.03;;;22.93;21.83
65359;BME280;52491;45.900;6.346;2023-01-28T08:49:48;93751.16;;;22.94;21.80
65359;BME280;52491;45.900;6.346;2023-01-28T08:52:14;93761.56;;;22.95;21.83
65359;BME280;52491;45.900;6.346;2023-01-28T08:54:39;93756.25;;;22.95;21.82
65359;BME280;52491;45.900;6.346;2023-01-28T08:57:05;93756.00;;;22.97;21.79
65359;BME280;52491;45.900;6.346;2023-01-28T08:59:30;93757.59;;;22.98;21.96
65359;BME280;52491;45.900;6.346;2023-01-28T09:01:56;93766.91;;;23.00;21.98
65359;BME280;52491;45.900;6.346;2023-01-28T09:04:22;93762.84;;;22.93;20.94
65359;BME280;52491;45.900;6.346;2023-01-28T09:06:47;93767.28;;;22.77;20.71
65359;BME280;52491;45.900;6.346;2023-01-28T09:09:13;93769.34;;;22.70;21.03
65359;BME280;52491;45.900;6.346;2023-01-28T09:11:39;93774.34;;;22.66;21.41
65359;BME280;52491;45.900;6.346;2023-01-28T09:14:04;93780.47;;;22.67;21.47
65359;BME280;52491;45.900;6.346;2023-01-28T09:16:30;93786.34;;;22.69;21.65
65359;BME280;52491;45.900;6.346;2023-01-28T09:18:55;93790.88;;;22.73;21.80
65359;BME280;52491;45.900;6.346;2023-01-28T09:21:21;93786.91;;;22.76;21.74
65359;BME280;52491;45.900;6.346;2023-01-28T09:23:47;93783.75;;;22.79;21.93
65359;BME280;52491;45.900;6.346;2023-01-28T09:26:13;93787.47;;;22.78;21.96
65359;BME280;52491;45.900;6.346;2023-01-28T09:28:39;93791.19;;;22.77;22.09
65359;BME280;52491;45.900;6.346;2023-01-28T09:31:06;93792.78;;;22.78;21.93
65359;BME280;52491;45.900;6.346;2023-01-28T09:33:34;93788.25;;;22.78;22.10
65359;BME280;52491;45.900;6.346;2023-01-28T09:36:03;93792.78;;;22.78;22.32
65359;BME280;52491;45.900;6.346;2023-01-28T09:38:30;93796.22;;;22.78;21.98
65359;BME280;52491;45.900;6.346;2023-01-28T09:40:58;93790.91;;;22.78;22.18
65359;BME280;52491;45.900;6.346;2023-01-28T09:46:07;93802.09;;;22.81;22.26
65359;BME280;52491;45.900;6.346;2023-01-28T09:48:39;93801.03;;;22.82;22.34
65359;BME280;52491;45.900;6.346;2023-01-28T09:51:21;93805.03;;;22.84;22.30
65359;BME280;52491;45.900;6.346;2023-01-28T09:53:52;93814.31;;;22.82;22.11
65359;BME280;52491;45.900;6.346;2023-01-28T09:56:31;93807.97;;;22.83;22.29
65359;BME280;52491;45.900;6.346;2023-01-28T09:59:12;93812.22;;;22.84;22.20
65359;BME280;52491;45.900;6.346;2023-01-28T10:10:16;93809.06;;;22.87;22.30
65359;BME280;52491;45.900;6.346;2023-01-28T10:12:57;93810.13;;;22.86;22.21
65359;BME280;52491;45.900;6.346;2023-01-28T10:18:03;93810.66;;;22.88;22.28
65359;BME280;52491;45.900;6.346;2023-01-28T10:20:36;93810.41;;;22.89;22.38
65359;BME280;52491;45.900;6.346;2023-01-28T10:25:42;93812.28;;;22.89;22.46
65359;BME280;52491;45.900;6.346;2023-01-28T10:28:18;93813.91;;;22.95;22.40
65359;BME280;52491;45.900;6.346;2023-01-28T10:30:46;93814.72;;;22.95;22.59
65359;BME280;52491;45.900;6.346;2023-01-28T10:33:28;93821.63;;;22.96;22.79
65359;BME280;52491;45.900;6.346;2023-01-28T10:35:55;93819.47;;;22.93;22.85
65359;BME280;52491;45.900;6.346;2023-01-28T10:38:25;93817.38;;;22.95;22.87
65359;BME280;52491;45.900;6.346;2023-01-28T10:40:54;93820.59;;;22.97;22.99
65359;BME280;52491;45.900;6.346;2023-01-28T10:43:24;93816.09;;;22.98;22.92
65359;BME280;52491;45.900;6.346;2023-01-28T10:46:10;93815.56;;;23.01;22.93
65359;BME280;52491;45.900;6.346;2023-01-28T10:51:31;93820.84;;;22.96;22.95
65359;BME280;52491;45.900;6.346;2023-01-28T10:53:57;93822.72;;;22.95;23.15
65359;BME280;52491;45.900;6.346;2023-01-28T10:56:30;93818.50;;;22.99;23.10
65359;BME280;52491;45.900;6.346;2023-01-28T11:01:23;93824.78;;;22.93;23.15
65359;BME280;52491;45.900;6.346;2023-01-28T11:03:57;93833.34;;;22.95;23.15
65359;BME280;52491;45.900;6.346;2023-01-28T11:06:28;93826.41;;;22.94;23.00
65359;BME280;52491;45.900;6.346;2023-01-28T11:08:55;93830.69;;;22.95;23.11
65359;BME280;52491;45.900;6.346;2023-01-28T11:11:25;93825.66;;;22.99;23.05
65359;BME280;52491;45.900;6.346;2023-01-28T11:13:53;93812.88;;;22.96;23.17
65359;BME280;52491;45.900;6.346;2023-01-28T11:16:20;93815.53;;;22.96;22.84
65359;BME280;52491;45.900;6.346;2023-01-28T11:18:59;93828.25;;;22.94;22.94
65359;BME280;52491;45.900;6.346;2023-01-28T11:21:28;93824.78;;;22.93;22.92
65359;BME280;52491;45.900;6.346;2023-01-28T11:24:03;93816.81;;;22.93;22.80
65359;BME280;52491;45.900;6.346;2023-01-28T11:26:36;93822.72;;;22.95;23.03
65359;BME280;52491;45.900;6.346;2023-01-28T11:29:04;93820.53;;;22.92;21.43
65359;BME280;52491;45.900;6.346;2023-01-28T11:31:38;93809.00;;;22.82;22.28
65359;BME280;52491;45.900;6.346;2023-01-28T11:34:06;93812.97;;;22.79;22.83
65359;BME280;52491;45.900;6.346;2023-01-28T11:36:32;93818.59;;;22.83;23.04
65359;BME280;52491;45.900;6.346;2023-01-28T11:39:00;93812.78;;;22.86;23.17
65359;BME280;52491;45.900;6.346;2023-01-28T11:41:36;93823.94;;;22.88;23.00
65359;BME280;52491;45.900;6.346;2023-01-28T11:44:20;93818.09;;;22.86;23.11
65359;BME280;52491;45.900;6.346;2023-01-28T11:55:48;93819.34;;;22.78;23.56
65359;BME280;52491;45.900;6.346;2023-01-28T12:01:01;93829.72;;;22.79;23.10
65359;BME280;52491;45.900;6.346;2023-01-28T12:03:40;93830.53;;;22.80;22.96
65359;BME280;52491;45.900;6.346;2023-01-28T12:21:05;93823.09;;;22.82;23.07
65359;BME280;52491;45.900;6.346;2023-01-28T12:32:10;93819.91;;;22.80;23.44
65359;BME280;52491;45.900;6.346;2023-01-28T12:40:49;93826.09;;;22.91;23.68
65359;BME280;52491;45.900;6.346;2023-01-28T12:43:24;93824.25;;;22.91;23.98
65359;BME280;52491;45.900;6.346;2023-01-28T12:45:56;93821.09;;;22.94;23.61
65359;BME280;52491;45.900;6.346;2023-01-28T12:48:34;93829.31;;;22.93;23.91
65359;BME280;52491;45.900;6.346;2023-01-28T12:51:13;93830.09;;;22.93;23.97
65359;BME280;52491;45.900;6.346;2023-01-28T12:53:56;93825.91;;;22.97;23.83
65359;BME280;52491;45.900;6.346;2023-01-28T12:56:28;93825.13;;;22.97;23.31
65359;BME280;52491;45.900;6.346;2023-01-28T12:59:13;93823.97;;;22.93;23.64
65359;BME280;52491;45.900;6.346;2023-01-28T13:01:45;93821.03;;;22.89;23.81
65359;BME280;52491;45.900;6.346;2023-01-28T13:10:04;93816.47;;;22.85;23.79
65359;BME280;52491;45.900;6.346;2023-01-28T13:12:32;93823.41;;;22.86;23.76
65359;BME280;52491;45.900;6.346;2023-01-28T13:14:59;93817.28;;;22.85;23.83
65359;BME280;52491;45.900;6.346;2023-01-28T13:17:28;93812.78;;;22.86;23.65
65359;BME280;52491;45.900;6.346;2023-01-28T13:19:54;93808.25;;;22.86;23.59
65359;BME280;52491;45.900;6.346;2023-01-28T13:24:53;93818.91;;;22.86;23.41
65359;BME280;52491;45.900;6.346;2023-01-28T13:27:27;93813.56;;;22.86;23.51
65359;BME280;52491;45.900;6.346;2023-01-28T13:30:18;93819.44;;;22.88;23.46
65359;BME280;52491;45.900;6.346;2023-01-28T13:33:04;93825.00;;;22.87;23.45
65359;BME280;52491;45.900;6.346;2023-01-28T13:35:33;93821.56;;;22.86;23.56
65359;BME280;52491;45.900;6.346;2023-01-28T13:38:18;93828.47;;;22.87;23.35
65359;BME280;52491;45.900;6.346;2023-01-28T13:40:54;93838.28;;;22.87;23.45
65359;BME280;52491;45.900;6.346;2023-01-28T13:43:35;93842.81;;;22.86;23.42
65359;BME280;52491;45.900;6.346;2023-01-28T13:46:10;93854.25;;;22.87;23.46
65359;BME280;52491;45.900;6.346;2023-01-28T13:48:44;93850.78;;;22.86;23.34
65359;BME280;52491;45.900;6.346;2023-01-28T13:53:51;93858.75;;;22.86;23.46
65359;BME280;52491;45.900;6.346;2023-01-28T13:56:22;93864.88;;;22.87;23.34
65359;BME280;52491;45.900;6.346;2023-01-28T14:01:30;93866.47;;;22.88;23.34
65359;BME280;52491;45.900;6.346;2023-01-28T14:04:07;93868.34;;;22.87;23.30
65359;BME280;52491;45.900;6.346;2023-01-28T14:09:35;93867.78;;;22.85;23.15
65359;BME280;52491;45.900;6.346;2023-01-28T14:17:50;93866.19;;;22.84;23.10
65359;BME280;52491;45.900;6.346;2023-01-28T14:22:58;93870.94;;;22.82;23.21
65359;BME280;52491;45.900;6.346;2023-01-28T14:31:31;93865.94;;;22.86;23.00
65359;BME280;52491;45.900;6.346;2023-01-28T14:34:22;93869.63;;;22.85;22.91
65359;BME280;52491;45.900;6.346;2023-01-28T14:36:52;93865.38;;;22.84;22.90
65359;BME280;52491;45.900;6.346;2023-01-28T14:39:28;93867.53;;;22.87;22.91
65359;BME280;52491;45.900;6.346;2023-01-28T14:41:57;93873.31;;;22.78;23.00
65359;BME280;52491;45.900;6.346;2023-01-28T14:44:28;93870.69;;;22.84;22.96
65359;BME280;52491;45.900;6.346;2023-01-28T14:47:19;93870.44;;;22.85;22.91
65359;BME280;52491;45.900;6.346;2023-01-28T14:58:28;93876.81;;;22.84;22.76
65359;BME280;52491;45.900;6.346;2023-01-28T15:00:58;93874.94;;;22.85;22.76
65359;BME280;52491;45.900;6.346;2023-01-28T15:03:25;93871.78;;;22.83;22.96
65359;BME280;52491;45.900;6.346;2023-01-28T15:06:14;93866.19;;;22.84;22.70
65359;BME280;52491;45.900;6.346;2023-01-28T15:08:40;93871.22;;;22.81;22.75
65359;BME280;52491;45.900;6.346;2023-01-28T15:11:14;93875.72;;;22.80;22.81
65359;BME280;52491;45.900;6.346;2023-01-28T15:13:46;93879.97;;;22.81;22.74
65359;BME280;52491;45.900;6.346;2023-01-28T15:16:18;93880.78;;;22.82;22.65
65359;BME280;52491;45.900;6.346;2023-01-28T15:18:45;93889.03;;;22.80;22.57
65359;BME280;52491;45.900;6.346;2023-01-28T15:21:11;93884.22;;;22.82;22.65